Terminal Aerodrome Forecast
Issued by NWS Shreveport, LA

Home | Current Version | Previous Version | Text Only | Print | Product List | Glossary On
Versions: 1 2 3 4 5 6 7 8 9 10 11 12 13 14 15 16 17 18
651
FTUS44 KSHV 271735
TAFELD
TAF
KELD 271735Z 2718/2818 VRB05KT P6SM VCSH SCT035 OVC050
     FM272000 VRB06KT P6SM -SHRA VCTS SCT020 OVC035CB
      TEMPO 2720/2724 VRB13G22KT 3SM TSRA BR BKN020CB
     FM280300 17007KT P6SM VCTS OVC015CB=

USA.gov is the U.S. government's official web portal to all federal, state and local government web resources and services.